createdAt,value
2017-06-27T00:00:53.136Z,1006.34
2017-06-27T00:10:53.099Z,1006.31
2017-06-27T00:20:53.158Z,1006.34
2017-06-27T00:30:53.112Z,1006.35
2017-06-27T00:40:53.193Z,1006.22
2017-06-27T00:50:53.146Z,1006.21
2017-06-27T01:00:53.105Z,1006.08
2017-06-27T01:10:53.175Z,1006.16
2017-06-27T01:20:53.133Z,1006.05
2017-06-27T01:30:53.095Z,1006.04
2017-06-27T01:40:53.158Z,1006.01
2017-06-27T01:50:53.113Z,1006.01
2017-06-27T02:00:53.069Z,1005.96
2017-06-27T02:10:53.139Z,1005.88
2017-06-27T02:20:53.101Z,1005.83
2017-06-27T02:30:53.168Z,1005.75
2017-06-27T02:40:53.174Z,1005.63
2017-06-27T02:50:53.087Z,1005.5
2017-06-27T03:00:53.148Z,1005.67
2017-06-27T03:10:53.113Z,1005.77
2017-06-27T03:20:53.172Z,1005.81
2017-06-27T03:30:53.129Z,1005.81
2017-06-27T03:40:53.092Z,1005.74
2017-06-27T03:50:53.166Z,1005.62
2017-06-27T04:00:53.199Z,1005.55
2017-06-27T04:10:53.075Z,1005.54
2017-06-27T04:20:53.143Z,1005.45
2017-06-27T04:30:53.097Z,1005.36
2017-06-27T04:40:53.070Z,1005.36
2017-06-27T04:50:53.127Z,1005.23
2017-06-27T05:00:53.092Z,1005.15
2017-06-27T05:10:53.158Z,1005.01
2017-06-27T05:20:53.111Z,1005.05
2017-06-27T05:30:53.078Z,1005.05
2017-06-27T05:40:53.134Z,1005.05
2017-06-27T05:50:53.095Z,1004.98
2017-06-27T06:00:53.166Z,1004.81
2017-06-27T06:10:53.134Z,1004.69
2017-06-27T06:20:53.082Z,1004.74
2017-06-27T06:30:53.150Z,1004.72
2017-06-27T06:40:53.114Z,1004.73
2017-06-27T06:50:53.071Z,1004.62
2017-06-27T07:00:53.369Z,1004.61
2017-06-27T07:10:53.089Z,1004.54
2017-06-27T07:20:53.162Z,1004.55
2017-06-27T07:30:53.117Z,1004.6
2017-06-27T07:40:53.082Z,1004.54
2017-06-27T07:50:53.145Z,1004.46
2017-06-27T08:00:53.119Z,1004.37
2017-06-27T08:10:53.163Z,1004.28
2017-06-27T08:20:53.130Z,1004.28
2017-06-27T08:30:53.078Z,1004.22
2017-06-27T08:40:53.158Z,1004.13
2017-06-27T08:50:53.127Z,1004.01
2017-06-27T09:00:53.177Z,1003.96
2017-06-27T09:10:53.132Z,1003.89
2017-06-27T09:20:53.101Z,1003.75
2017-06-27T09:30:53.172Z,1003.76
2017-06-27T09:40:53.123Z,1003.65
2017-06-27T09:50:53.200Z,1003.63
2017-06-27T10:00:53.151Z,1003.58
2017-06-27T10:10:53.087Z,1003.53
2017-06-27T10:20:53.097Z,1003.55
2017-06-27T10:30:53.095Z,1003.34
2017-06-27T10:40:53.101Z,1003.44
2017-06-27T10:50:53.110Z,1003.3
2017-06-27T11:00:54.152Z,1003.08
2017-06-27T11:10:53.099Z,1003.08
2017-06-27T11:20:53.101Z,1003.02
2017-06-27T11:30:53.138Z,1002.88
2017-06-27T11:40:53.115Z,1002.74
2017-06-27T11:50:53.109Z,1002.54
2017-06-27T12:00:53.109Z,1002.49
2017-06-27T12:10:53.124Z,1002.37
2017-06-27T12:20:53.112Z,1002.3
2017-06-27T12:30:53.189Z,1002.26
2017-06-27T12:40:53.122Z,1002.21
2017-06-27T12:50:53.119Z,1002.16
2017-06-27T13:00:53.135Z,1002.12
2017-06-27T13:10:53.132Z,1001.97
2017-06-27T13:20:53.148Z,1002
2017-06-27T13:30:53.136Z,1001.89
2017-06-27T13:40:53.145Z,1001.68
2017-06-27T13:50:53.136Z,1001.56
2017-06-27T14:00:53.146Z,1001.48
2017-06-27T14:10:53.200Z,1001.33
2017-06-27T14:20:53.198Z,1001.24
2017-06-27T14:30:53.228Z,1001.17
2017-06-27T14:40:53.184Z,1000.9
2017-06-27T14:50:53.280Z,1000.8
2017-06-27T15:00:53.181Z,1000.66
2017-06-27T15:10:53.235Z,1000.53
2017-06-27T15:20:53.186Z,1000.32
2017-06-27T15:30:53.255Z,1000.26
2017-06-27T15:40:53.218Z,1000.17
2017-06-27T15:50:53.214Z,999.97
2017-06-27T16:00:54.284Z,999.88
2017-06-27T16:10:53.208Z,999.82
2017-06-27T16:20:53.213Z,999.74
2017-06-27T16:30:53.230Z,999.6
2017-06-27T16:40:53.222Z,999.48
2017-06-27T16:50:53.168Z,999.39
2017-06-27T17:00:53.209Z,999.28
2017-06-27T17:10:53.173Z,999.21
2017-06-27T17:20:53.243Z,999.13
2017-06-27T17:30:53.195Z,998.98
2017-06-27T17:40:53.281Z,999.01
2017-06-27T18:00:53.200Z,998.64
2017-06-27T18:10:53.830Z,998.57
2017-06-27T18:20:53.208Z,998.4
2017-06-27T18:30:53.285Z,998.23
2017-06-27T18:40:53.240Z,998.45
2017-06-27T18:50:53.203Z,998.32
2017-06-27T19:00:53.307Z,998.31
2017-06-27T19:10:53.250Z,998.27
2017-06-27T19:20:53.488Z,998.16
2017-06-27T19:30:53.256Z,997.94
2017-06-27T19:40:53.317Z,997.9
2017-06-27T19:50:53.255Z,997.76
2017-06-27T20:00:53.238Z,997.66
2017-06-27T20:10:53.287Z,997.64
2017-06-27T20:20:53.251Z,997.53
2017-06-27T20:30:53.290Z,997.39
2017-06-27T20:40:53.271Z,997.31
2017-06-27T21:00:53.317Z,997.05
2017-06-27T21:10:54.282Z,996.92
2017-06-27T21:20:53.196Z,996.82
2017-06-27T21:30:53.278Z,996.74
2017-06-27T21:40:53.233Z,996.62
2017-06-27T21:50:53.290Z,996.54
2017-06-27T22:00:53.257Z,996.52
2017-06-27T22:10:53.384Z,996.44
2017-06-27T22:20:53.285Z,996.42
2017-06-27T22:30:53.245Z,996.36
2017-06-27T22:40:53.305Z,996.29
2017-06-27T22:50:53.270Z,996.03
2017-06-27T23:00:53.313Z,995.84
2017-06-27T23:10:53.305Z,995.73
2017-06-27T23:20:53.255Z,995.64
2017-06-27T23:30:53.218Z,995.46
2017-06-27T23:40:53.265Z,995.24
2017-06-27T23:50:53.227Z,995.07
